sensor_id;sensor_type;location;lat;lon;timestamp;P1;durP1;ratioP1;P2;durP2;ratioP2
56997;SDS011;42890;44.244;22.530;2023-07-31T00:01:30;13.93;;;12.85;;
56997;SDS011;42890;44.244;22.530;2023-07-31T00:03:56;13.23;;;12.13;;
56997;SDS011;42890;44.244;22.530;2023-07-31T00:06:22;14.50;;;13.30;;
56997;SDS011;42890;44.244;22.530;2023-07-31T00:08:48;15.55;;;13.65;;
56997;SDS011;42890;44.244;22.530;2023-07-31T00:11:14;14.57;;;13.48;;
56997;SDS011;42890;44.244;22.530;2023-07-31T00:13:41;14.80;;;13.70;;
56997;SDS011;42890;44.244;22.530;2023-07-31T00:16:07;14.48;;;13.32;;
56997;SDS011;42890;44.244;22.530;2023-07-31T00:18:33;13.88;;;12.88;;
56997;SDS011;42890;44.244;22.530;2023-07-31T00:21:00;15.95;;;14.70;;
56997;SDS011;42890;44.244;22.530;2023-07-31T00:23:26;15.10;;;14.05;;
56997;SDS011;42890;44.244;22.530;2023-07-31T00:25:52;16.38;;;15.07;;
56997;SDS011;42890;44.244;22.530;2023-07-31T00:28:18;16.05;;;14.45;;
56997;SDS011;42890;44.244;22.530;2023-07-31T00:30:44;16.98;;;15.23;;
56997;SDS011;42890;44.244;22.530;2023-07-31T00:33:10;16.15;;;14.82;;
56997;SDS011;42890;44.244;22.530;2023-07-31T00:35:36;15.93;;;14.82;;
56997;SDS011;42890;44.244;22.530;2023-07-31T00:38:02;15.77;;;14.40;;
56997;SDS011;42890;44.244;22.530;2023-07-31T00:40:28;16.95;;;15.45;;
56997;SDS011;42890;44.244;22.530;2023-07-31T00:42:54;16.88;;;15.32;;
56997;SDS011;42890;44.244;22.530;2023-07-31T00:45:21;16.58;;;15.35;;
56997;SDS011;42890;44.244;22.530;2023-07-31T00:47:48;17.15;;;15.90;;
56997;SDS011;42890;44.244;22.530;2023-07-31T00:50:15;17.20;;;15.80;;
56997;SDS011;42890;44.244;22.530;2023-07-31T00:52:41;16.25;;;15.02;;
56997;SDS011;42890;44.244;22.530;2023-07-31T00:55:07;16.48;;;15.25;;
56997;SDS011;42890;44.244;22.530;2023-07-31T00:57:33;16.92;;;15.60;;
56997;SDS011;42890;44.244;22.530;2023-07-31T01:00:00;16.40;;;15.00;;
56997;SDS011;42890;44.244;22.530;2023-07-31T01:02:26;17.70;;;15.90;;
56997;SDS011;42890;44.244;22.530;2023-07-31T01:04:53;17.00;;;15.50;;
56997;SDS011;42890;44.244;22.530;2023-07-31T01:07:22;17.02;;;15.52;;
56997;SDS011;42890;44.244;22.530;2023-07-31T01:12:46;16.80;;;15.23;;
56997;SDS011;42890;44.244;22.530;2023-07-31T01:15:13;16.67;;;15.23;;
56997;SDS011;42890;44.244;22.530;2023-07-31T01:17:41;14.65;;;13.45;;
56997;SDS011;42890;44.244;22.530;2023-07-31T01:20:11;17.10;;;15.48;;
56997;SDS011;42890;44.244;22.530;2023-07-31T01:27:34;15.85;;;14.65;;
56997;SDS011;42890;44.244;22.530;2023-07-31T01:30:15;16.05;;;14.75;;
56997;SDS011;42890;44.244;22.530;2023-07-31T01:32:42;15.18;;;13.98;;
56997;SDS011;42890;44.244;22.530;2023-07-31T01:35:09;16.25;;;14.65;;
56997;SDS011;42890;44.244;22.530;2023-07-31T01:37:35;15.93;;;14.60;;
56997;SDS011;42890;44.244;22.530;2023-07-31T01:40:02;15.70;;;14.43;;
56997;SDS011;42890;44.244;22.530;2023-07-31T01:42:28;14.75;;;13.55;;
56997;SDS011;42890;44.244;22.530;2023-07-31T01:44:54;15.55;;;14.30;;
56997;SDS011;42890;44.244;22.530;2023-07-31T01:47:20;16.90;;;15.48;;
56997;SDS011;42890;44.244;22.530;2023-07-31T01:49:46;16.55;;;15.15;;
56997;SDS011;42890;44.244;22.530;2023-07-31T01:52:13;16.13;;;14.85;;
56997;SDS011;42890;44.244;22.530;2023-07-31T01:54:39;16.77;;;15.38;;
56997;SDS011;42890;44.244;22.530;2023-07-31T01:57:05;16.80;;;15.27;;
56997;SDS011;42890;44.244;22.530;2023-07-31T01:59:31;16.73;;;15.13;;
56997;SDS011;42890;44.244;22.530;2023-07-31T02:01:57;16.55;;;14.93;;
56997;SDS011;42890;44.244;22.530;2023-07-31T02:04:23;15.60;;;14.05;;
56997;SDS011;42890;44.244;22.530;2023-07-31T02:06:49;14.88;;;13.57;;
56997;SDS011;42890;44.244;22.530;2023-07-31T02:09:16;16.08;;;14.40;;
56997;SDS011;42890;44.244;22.530;2023-07-31T02:11:42;10.90;;;10.07;;
56997;SDS011;42890;44.244;22.530;2023-07-31T02:14:08;12.68;;;11.55;;
56997;SDS011;42890;44.244;22.530;2023-07-31T02:16:34;11.15;;;10.30;;
56997;SDS011;42890;44.244;22.530;2023-07-31T02:19:00;10.85;;;9.93;;
56997;SDS011;42890;44.244;22.530;2023-07-31T02:21:26;9.57;;;8.88;;
56997;SDS011;42890;44.244;22.530;2023-07-31T02:23:52;9.80;;;8.90;;
56997;SDS011;42890;44.244;22.530;2023-07-31T02:26:18;8.70;;;7.95;;
56997;SDS011;42890;44.244;22.530;2023-07-31T02:28:44;8.27;;;7.47;;
56997;SDS011;42890;44.244;22.530;2023-07-31T02:31:11;8.48;;;7.40;;
56997;SDS011;42890;44.244;22.530;2023-07-31T02:33:37;6.47;;;5.97;;
56997;SDS011;42890;44.244;22.530;2023-07-31T02:36:03;6.70;;;6.10;;
56997;SDS011;42890;44.244;22.530;2023-07-31T02:38:29;6.05;;;5.40;;
56997;SDS011;42890;44.244;22.530;2023-07-31T02:40:55;6.30;;;5.70;;
56997;SDS011;42890;44.244;22.530;2023-07-31T02:43:21;5.68;;;5.18;;
56997;SDS011;42890;44.244;22.530;2023-07-31T02:45:51;6.07;;;5.13;;
56997;SDS011;42890;44.244;22.530;2023-07-31T02:48:17;5.72;;;5.15;;
56997;SDS011;42890;44.244;22.530;2023-07-31T02:50:44;5.70;;;5.20;;
56997;SDS011;42890;44.244;22.530;2023-07-31T02:53:10;5.57;;;4.97;;
56997;SDS011;42890;44.244;22.530;2023-07-31T02:55:36;6.72;;;5.43;;
56997;SDS011;42890;44.244;22.530;2023-07-31T02:58:02;4.97;;;4.57;;
56997;SDS011;42890;44.244;22.530;2023-07-31T03:00:28;5.18;;;4.50;;
56997;SDS011;42890;44.244;22.530;2023-07-31T03:02:54;4.72;;;4.32;;
56997;SDS011;42890;44.244;22.530;2023-07-31T03:05:20;6.10;;;4.57;;
56997;SDS011;42890;44.244;22.530;2023-07-31T03:07:46;4.32;;;4.03;;
56997;SDS011;42890;44.244;22.530;2023-07-31T03:10:13;4.55;;;4.25;;
56997;SDS011;42890;44.244;22.530;2023-07-31T03:12:39;4.57;;;4.18;;
56997;SDS011;42890;44.244;22.530;2023-07-31T03:15:06;5.97;;;3.65;;
56997;SDS011;42890;44.244;22.530;2023-07-31T03:17:32;6.50;;;4.20;;
56997;SDS011;42890;44.244;22.530;2023-07-31T03:19:58;4.50;;;4.10;;
56997;SDS011;42890;44.244;22.530;2023-07-31T03:22:24;3.83;;;3.53;;
56997;SDS011;42890;44.244;22.530;2023-07-31T03:24:50;5.13;;;3.97;;
56997;SDS011;42890;44.244;22.530;2023-07-31T03:27:17;4.40;;;4.00;;
56997;SDS011;42890;44.244;22.530;2023-07-31T03:29:45;4.07;;;3.67;;
56997;SDS011;42890;44.244;22.530;2023-07-31T03:32:11;4.50;;;3.88;;
56997;SDS011;42890;44.244;22.530;2023-07-31T03:34:37;4.20;;;3.80;;
56997;SDS011;42890;44.244;22.530;2023-07-31T03:37:04;3.92;;;3.53;;
56997;SDS011;42890;44.244;22.530;2023-07-31T03:39:30;4.00;;;3.60;;
56997;SDS011;42890;44.244;22.530;2023-07-31T03:41:56;4.28;;;3.88;;
56997;SDS011;42890;44.244;22.530;2023-07-31T03:44:22;4.07;;;3.67;;
56997;SDS011;42890;44.244;22.530;2023-07-31T03:46:48;4.38;;;4.05;;
56997;SDS011;42890;44.244;22.530;2023-07-31T03:49:14;7.30;;;4.35;;
56997;SDS011;42890;44.244;22.530;2023-07-31T03:51:40;4.55;;;3.97;;
56997;SDS011;42890;44.244;22.530;2023-07-31T03:54:07;6.40;;;3.88;;
56997;SDS011;42890;44.244;22.530;2023-07-31T03:56:33;6.35;;;3.83;;
56997;SDS011;42890;44.244;22.530;2023-07-31T03:58:59;3.78;;;3.40;;
56997;SDS011;42890;44.244;22.530;2023-07-31T04:01:26;4.40;;;3.15;;
56997;SDS011;42890;44.244;22.530;2023-07-31T04:03:52;3.42;;;3.13;;
56997;SDS011;42890;44.244;22.530;2023-07-31T04:06:18;3.25;;;2.90;;
56997;SDS011;42890;44.244;22.530;2023-07-31T04:08:44;4.60;;;3.13;;
56997;SDS011;42890;44.244;22.530;2023-07-31T04:11:11;5.03;;;3.15;;
56997;SDS011;42890;44.244;22.530;2023-07-31T04:13:40;7.78;;;2.88;;
56997;SDS011;42890;44.244;22.530;2023-07-31T04:16:06;3.60;;;2.90;;
56997;SDS011;42890;44.244;22.530;2023-07-31T04:18:32;5.30;;;2.75;;
56997;SDS011;42890;44.244;22.530;2023-07-31T04:20:58;3.17;;;2.85;;
56997;SDS011;42890;44.244;22.530;2023-07-31T04:23:26;2.92;;;2.70;;
56997;SDS011;42890;44.244;22.530;2023-07-31T04:25:52;2.78;;;2.47;;
56997;SDS011;42890;44.244;22.530;2023-07-31T04:28:18;4.10;;;2.65;;
56997;SDS011;42890;44.244;22.530;2023-07-31T04:30:44;4.93;;;2.40;;
56997;SDS011;42890;44.244;22.530;2023-07-31T04:33:11;2.83;;;2.30;;
56997;SDS011;42890;44.244;22.530;2023-07-31T04:35:37;2.40;;;2.25;;
56997;SDS011;42890;44.244;22.530;2023-07-31T04:38:03;4.00;;;2.75;;
56997;SDS011;42890;44.244;22.530;2023-07-31T04:40:29;3.75;;;2.80;;
56997;SDS011;42890;44.244;22.530;2023-07-31T04:42:55;2.78;;;2.58;;
56997;SDS011;42890;44.244;22.530;2023-07-31T04:45:21;5.93;;;2.50;;
56997;SDS011;42890;44.244;22.530;2023-07-31T04:47:47;2.70;;;2.50;;
56997;SDS011;42890;44.244;22.530;2023-07-31T04:50:14;2.72;;;2.45;;
56997;SDS011;42890;44.244;22.530;2023-07-31T04:52:40;2.38;;;2.17;;
56997;SDS011;42890;44.244;22.530;2023-07-31T04:55:06;3.85;;;2.60;;
56997;SDS011;42890;44.244;22.530;2023-07-31T04:57:32;4.97;;;2.38;;
56997;SDS011;42890;44.244;22.530;2023-07-31T04:59:58;2.80;;;2.60;;
56997;SDS011;42890;44.244;22.530;2023-07-31T05:02:24;2.65;;;2.45;;
56997;SDS011;42890;44.244;22.530;2023-07-31T05:04:50;3.38;;;2.55;;
56997;SDS011;42890;44.244;22.530;2023-07-31T05:07:17;2.45;;;2.25;;
56997;SDS011;42890;44.244;22.530;2023-07-31T05:09:43;3.13;;;2.33;;
56997;SDS011;42890;44.244;22.530;2023-07-31T05:12:09;4.28;;;2.67;;
56997;SDS011;42890;44.244;22.530;2023-07-31T05:14:35;2.75;;;2.40;;
56997;SDS011;42890;44.244;22.530;2023-07-31T05:17:01;3.33;;;2.67;;
56997;SDS011;42890;44.244;22.530;2023-07-31T05:19:27;4.60;;;2.58;;
56997;SDS011;42890;44.244;22.530;2023-07-31T05:21:53;2.65;;;2.45;;
56997;SDS011;42890;44.244;22.530;2023-07-31T05:24:19;2.60;;;2.40;;
56997;SDS011;42890;44.244;22.530;2023-07-31T05:26:45;4.85;;;2.40;;
56997;SDS011;42890;44.244;22.530;2023-07-31T05:29:12;2.40;;;2.22;;
56997;SDS011;42890;44.244;22.530;2023-07-31T05:31:38;6.75;;;2.90;;
56997;SDS011;42890;44.244;22.530;2023-07-31T05:34:04;2.20;;;2.10;;
56997;SDS011;42890;44.244;22.530;2023-07-31T05:36:30;2.33;;;2.13;;
56997;SDS011;42890;44.244;22.530;2023-07-31T05:38:56;2.40;;;2.20;;
56997;SDS011;42890;44.244;22.530;2023-07-31T05:41:22;3.95;;;2.20;;
56997;SDS011;42890;44.244;22.530;2023-07-31T05:43:49;1.98;;;1.88;;
56997;SDS011;42890;44.244;22.530;2023-07-31T05:46:16;2.20;;;2.00;;
56997;SDS011;42890;44.244;22.530;2023-07-31T05:48:42;7.03;;;2.08;;
56997;SDS011;42890;44.244;22.530;2023-07-31T05:51:08;3.25;;;2.00;;
56997;SDS011;42890;44.244;22.530;2023-07-31T05:53:35;1.75;;;1.65;;
56997;SDS011;42890;44.244;22.530;2023-07-31T05:56:05;4.25;;;2.05;;
56997;SDS011;42890;44.244;22.530;2023-07-31T05:58:31;2.40;;;2.17;;
56997;SDS011;42890;44.244;22.530;2023-07-31T06:00:57;8.77;;;2.13;;
56997;SDS011;42890;44.244;22.530;2023-07-31T06:03:23;2.65;;;1.98;;
56997;SDS011;42890;44.244;22.530;2023-07-31T06:05:50;2.30;;;2.10;;
56997;SDS011;42890;44.244;22.530;2023-07-31T06:08:16;2.97;;;2.00;;
56997;SDS011;42890;44.244;22.530;2023-07-31T06:10:42;2.10;;;1.90;;
56997;SDS011;42890;44.244;22.530;2023-07-31T06:13:09;2.10;;;1.92;;
56997;SDS011;42890;44.244;22.530;2023-07-31T06:15:35;3.58;;;2.20;;
56997;SDS011;42890;44.244;22.530;2023-07-31T06:18:01;1.80;;;1.70;;
56997;SDS011;42890;44.244;22.530;2023-07-31T06:20:28;2.80;;;2.10;;
56997;SDS011;42890;44.244;22.530;2023-07-31T06:22:54;2.17;;;1.90;;
56997;SDS011;42890;44.244;22.530;2023-07-31T06:25:20;3.30;;;2.33;;
56997;SDS011;42890;44.244;22.530;2023-07-31T06:27:46;2.17;;;1.88;;
56997;SDS011;42890;44.244;22.530;2023-07-31T06:30:12;2.78;;;2.50;;
56997;SDS011;42890;44.244;22.530;2023-07-31T06:32:38;3.00;;;2.00;;
56997;SDS011;42890;44.244;22.530;2023-07-31T06:35:06;2.33;;;1.85;;
56997;SDS011;42890;44.244;22.530;2023-07-31T06:37:32;2.38;;;2.10;;
56997;SDS011;42890;44.244;22.530;2023-07-31T06:39:58;2.58;;;2.00;;
56997;SDS011;42890;44.244;22.530;2023-07-31T06:42:24;2.47;;;2.08;;
56997;SDS011;42890;44.244;22.530;2023-07-31T06:44:50;2.55;;;2.15;;
56997;SDS011;42890;44.244;22.530;2023-07-31T06:47:17;3.58;;;1.90;;
56997;SDS011;42890;44.244;22.530;2023-07-31T06:49:43;2.08;;;1.95;;
56997;SDS011;42890;44.244;22.530;2023-07-31T06:52:09;2.47;;;2.28;;
56997;SDS011;42890;44.244;22.530;2023-07-31T06:54:36;2.20;;;2.10;;
56997;SDS011;42890;44.244;22.530;2023-07-31T06:57:02;3.42;;;2.38;;
56997;SDS011;42890;44.244;22.530;2023-07-31T06:59:28;2.40;;;2.17;;
56997;SDS011;42890;44.244;22.530;2023-07-31T07:01:55;2.35;;;2.22;;
56997;SDS011;42890;44.244;22.530;2023-07-31T07:04:21;3.45;;;2.17;;
56997;SDS011;42890;44.244;22.530;2023-07-31T07:06:47;2.17;;;2.00;;
56997;SDS011;42890;44.244;22.530;2023-07-31T07:09:13;4.72;;;1.98;;
56997;SDS011;42890;44.244;22.530;2023-07-31T07:11:39;3.20;;;2.00;;
56997;SDS011;42890;44.244;22.530;2023-07-31T07:14:05;2.83;;;1.88;;
56997;SDS011;42890;44.244;22.530;2023-07-31T07:16:31;2.80;;;1.92;;
56997;SDS011;42890;44.244;22.530;2023-07-31T07:18:57;4.78;;;2.17;;
56997;SDS011;42890;44.244;22.530;2023-07-31T07:21:24;2.13;;;1.98;;
56997;SDS011;42890;44.244;22.530;2023-07-31T07:23:50;2.20;;;2.00;;
56997;SDS011;42890;44.244;22.530;2023-07-31T07:26:16;2.72;;;2.20;;
56997;SDS011;42890;44.244;22.530;2023-07-31T07:28:42;4.28;;;2.30;;
56997;SDS011;42890;44.244;22.530;2023-07-31T07:31:08;2.30;;;2.10;;
56997;SDS011;42890;44.244;22.530;2023-07-31T07:33:34;2.38;;;1.90;;
56997;SDS011;42890;44.244;22.530;2023-07-31T07:36:01;3.10;;;2.00;;
56997;SDS011;42890;44.244;22.530;2023-07-31T07:38:27;3.13;;;2.40;;
56997;SDS011;42890;44.244;22.530;2023-07-31T07:40:53;2.63;;;2.42;;
56997;SDS011;42890;44.244;22.530;2023-07-31T07:43:19;2.33;;;2.13;;
56997;SDS011;42890;44.244;22.530;2023-07-31T07:45:46;2.30;;;2.10;;
56997;SDS011;42890;44.244;22.530;2023-07-31T07:48:12;5.68;;;2.38;;
56997;SDS011;42890;44.244;22.530;2023-07-31T07:50:38;2.75;;;1.98;;
56997;SDS011;42890;44.244;22.530;2023-07-31T07:53:04;2.38;;;2.17;;
56997;SDS011;42890;44.244;22.530;2023-07-31T07:55:31;2.53;;;2.33;;
56997;SDS011;42890;44.244;22.530;2023-07-31T07:57:57;2.42;;;2.22;;
56997;SDS011;42890;44.244;22.530;2023-07-31T08:00:23;2.30;;;2.10;;
56997;SDS011;42890;44.244;22.530;2023-07-31T08:02:49;2.20;;;2.00;;
56997;SDS011;42890;44.244;22.530;2023-07-31T08:05:15;1.75;;;1.65;;
56997;SDS011;42890;44.244;22.530;2023-07-31T08:07:42;2.95;;;1.98;;
56997;SDS011;42890;44.244;22.530;2023-07-31T08:10:08;2.25;;;2.05;;
56997;SDS011;42890;44.244;22.530;2023-07-31T08:12:34;1.80;;;1.65;;
56997;SDS011;42890;44.244;22.530;2023-07-31T08:15:01;1.80;;;1.70;;
56997;SDS011;42890;44.244;22.530;2023-07-31T08:17:27;4.05;;;2.10;;
56997;SDS011;42890;44.244;22.530;2023-07-31T08:19:53;3.13;;;2.15;;
56997;SDS011;42890;44.244;22.530;2023-07-31T08:22:19;2.67;;;1.95;;
56997;SDS011;42890;44.244;22.530;2023-07-31T08:24:45;4.25;;;2.00;;
56997;SDS011;42890;44.244;22.530;2023-07-31T08:27:11;2.00;;;1.80;;
56997;SDS011;42890;44.244;22.530;2023-07-31T08:29:37;2.40;;;1.80;;
56997;SDS011;42890;44.244;22.530;2023-07-31T08:32:03;1.60;;;1.50;;
56997;SDS011;42890;44.244;22.530;2023-07-31T08:34:30;3.88;;;1.77;;
56997;SDS011;42890;44.244;22.530;2023-07-31T08:36:56;3.35;;;1.70;;
56997;SDS011;42890;44.244;22.530;2023-07-31T08:39:22;1.83;;;1.70;;
56997;SDS011;42890;44.244;22.530;2023-07-31T08:41:49;1.65;;;1.55;;
56997;SDS011;42890;44.244;22.530;2023-07-31T08:44:15;7.10;;;1.65;;
56997;SDS011;42890;44.244;22.530;2023-07-31T08:46:43;2.17;;;1.55;;
56997;SDS011;42890;44.244;22.530;2023-07-31T08:49:09;2.25;;;1.77;;
56997;SDS011;42890;44.244;22.530;2023-07-31T08:51:36;1.83;;;1.73;;
56997;SDS011;42890;44.244;22.530;2023-07-31T08:54:03;1.65;;;1.55;;
56997;SDS011;42890;44.244;22.530;2023-07-31T08:56:29;3.42;;;1.27;;
56997;SDS011;42890;44.244;22.530;2023-07-31T08:58:55;1.80;;;1.70;;
56997;SDS011;42890;44.244;22.530;2023-07-31T09:01:23;2.40;;;1.70;;
56997;SDS011;42890;44.244;22.530;2023-07-31T09:03:49;2.45;;;1.90;;
56997;SDS011;42890;44.244;22.530;2023-07-31T09:06:17;3.00;;;2.33;;
56997;SDS011;42890;44.244;22.530;2023-07-31T09:08:44;3.85;;;2.70;;
56997;SDS011;42890;44.244;22.530;2023-07-31T09:11:10;3.60;;;3.00;;
56997;SDS011;42890;44.244;22.530;2023-07-31T09:13:36;7.63;;;3.28;;
56997;SDS011;42890;44.244;22.530;2023-07-31T09:16:04;3.00;;;2.75;;
56997;SDS011;42890;44.244;22.530;2023-07-31T09:18:30;2.70;;;2.55;;
56997;SDS011;42890;44.244;22.530;2023-07-31T09:21:02;2.88;;;2.67;;
56997;SDS011;42890;44.244;22.530;2023-07-31T09:23:39;3.00;;;2.67;;
56997;SDS011;42890;44.244;22.530;2023-07-31T09:26:06;2.58;;;2.38;;
56997;SDS011;42890;44.244;22.530;2023-07-31T09:28:32;2.53;;;1.98;;
56997;SDS011;42890;44.244;22.530;2023-07-31T09:30:58;3.83;;;1.73;;
56997;SDS011;42890;44.244;22.530;2023-07-31T09:33:24;4.82;;;1.77;;
56997;SDS011;42890;44.244;22.530;2023-07-31T09:35:50;2.38;;;2.03;;
56997;SDS011;42890;44.244;22.530;2023-07-31T09:38:16;2.13;;;1.92;;
56997;SDS011;42890;44.244;22.530;2023-07-31T09:40:44;1.90;;;1.67;;
56997;SDS011;42890;44.244;22.530;2023-07-31T09:43:11;2.22;;;1.70;;
56997;SDS011;42890;44.244;22.530;2023-07-31T09:45:38;2.00;;;1.90;;
56997;SDS011;42890;44.244;22.530;2023-07-31T09:48:08;1.80;;;1.67;;
56997;SDS011;42890;44.244;22.530;2023-07-31T09:50:36;1.92;;;1.83;;
56997;SDS011;42890;44.244;22.530;2023-07-31T09:53:02;2.28;;;2.08;;
56997;SDS011;42890;44.244;22.530;2023-07-31T09:55:28;2.80;;;2.10;;
56997;SDS011;42890;44.244;22.530;2023-07-31T09:57:57;2.00;;;1.90;;
56997;SDS011;42890;44.244;22.530;2023-07-31T10:00:23;1.75;;;1.65;;
56997;SDS011;42890;44.244;22.530;2023-07-31T10:02:53;2.22;;;1.77;;
56997;SDS011;42890;44.244;22.530;2023-07-31T10:05:20;4.00;;;1.80;;
56997;SDS011;42890;44.244;22.530;2023-07-31T10:08:05;3.33;;;1.92;;
56997;SDS011;42890;44.244;22.530;2023-07-31T10:10:32;2.15;;;1.95;;
56997;SDS011;42890;44.244;22.530;2023-07-31T10:12:59;2.80;;;1.95;;
56997;SDS011;42890;44.244;22.530;2023-07-31T10:15:25;2.13;;;1.88;;
56997;SDS011;42890;44.244;22.530;2023-07-31T10:17:52;2.20;;;2.10;;
56997;SDS011;42890;44.244;22.530;2023-07-31T10:20:20;2.03;;;1.90;;
56997;SDS011;42890;44.244;22.530;2023-07-31T10:22:46;1.75;;;1.65;;
56997;SDS011;42890;44.244;22.530;2023-07-31T10:25:14;1.90;;;1.80;;
56997;SDS011;42890;44.244;22.530;2023-07-31T10:27:41;1.80;;;1.70;;
56997;SDS011;42890;44.244;22.530;2023-07-31T10:30:08;2.20;;;2.00;;
56997;SDS011;42890;44.244;22.530;2023-07-31T10:32:35;2.70;;;1.90;;
56997;SDS011;42890;44.244;22.530;2023-07-31T10:35:03;2.38;;;1.95;;
56997;SDS011;42890;44.244;22.530;2023-07-31T10:37:39;2.78;;;1.90;;
56997;SDS011;42890;44.244;22.530;2023-07-31T10:40:11;2.50;;;1.75;;
56997;SDS011;42890;44.244;22.530;2023-07-31T10:42:47;2.00;;;1.90;;
56997;SDS011;42890;44.244;22.530;2023-07-31T10:45:14;3.17;;;1.92;;
56997;SDS011;42890;44.244;22.530;2023-07-31T10:47:51;1.55;;;1.45;;
56997;SDS011;42890;44.244;22.530;2023-07-31T10:50:23;1.80;;;1.70;;
56997;SDS011;42890;44.244;22.530;2023-07-31T10:52:53;1.88;;;1.70;;
56997;SDS011;42890;44.244;22.530;2023-07-31T10:58:13;1.70;;;1.60;;
56997;SDS011;42890;44.244;22.530;2023-07-31T11:00:41;2.05;;;1.95;;
56997;SDS011;42890;44.244;22.530;2023-07-31T11:03:12;3.70;;;2.10;;
56997;SDS011;42890;44.244;22.530;2023-07-31T11:05:46;3.75;;;1.80;;
56997;SDS011;42890;44.244;22.530;2023-07-31T11:10:38;2.10;;;2.00;;
56997;SDS011;42890;44.244;22.530;2023-07-31T11:13:04;2.65;;;1.80;;
56997;SDS011;42890;44.244;22.530;2023-07-31T11:15:30;1.90;;;1.80;;
56997;SDS011;42890;44.244;22.530;2023-07-31T11:17:57;4.45;;;2.00;;
56997;SDS011;42890;44.244;22.530;2023-07-31T11:20:26;2.20;;;1.90;;
56997;SDS011;42890;44.244;22.530;2023-07-31T11:22:52;2.20;;;2.10;;
56997;SDS011;42890;44.244;22.530;2023-07-31T11:25:18;2.15;;;2.03;;
56997;SDS011;42890;44.244;22.530;2023-07-31T11:27:45;6.25;;;2.25;;
56997;SDS011;42890;44.244;22.530;2023-07-31T11:30:11;2.90;;;1.95;;
56997;SDS011;42890;44.244;22.530;2023-07-31T11:32:37;2.45;;;1.85;;
56997;SDS011;42890;44.244;22.530;2023-07-31T11:35:03;2.22;;;2.10;;
56997;SDS011;42890;44.244;22.530;2023-07-31T11:37:40;2.60;;;2.40;;
56997;SDS011;42890;44.244;22.530;2023-07-31T11:40:06;2.30;;;2.20;;
56997;SDS011;42890;44.244;22.530;2023-07-31T11:42:34;2.30;;;2.13;;
56997;SDS011;42890;44.244;22.530;2023-07-31T11:45:09;3.50;;;2.10;;
56997;SDS011;42890;44.244;22.530;2023-07-31T11:47:36;2.20;;;2.10;;
56997;SDS011;42890;44.244;22.530;2023-07-31T11:50:06;5.22;;;1.98;;
56997;SDS011;42890;44.244;22.530;2023-07-31T11:52:40;2.63;;;2.42;;
56997;SDS011;42890;44.244;22.530;2023-07-31T11:55:07;2.63;;;2.00;;
56997;SDS011;42890;44.244;22.530;2023-07-31T11:57:38;4.28;;;1.85;;
56997;SDS011;42890;44.244;22.530;2023-07-31T12:00:06;3.10;;;2.30;;
56997;SDS011;42890;44.244;22.530;2023-07-31T12:02:33;1.90;;;1.80;;
56997;SDS011;42890;44.244;22.530;2023-07-31T12:04:59;2.20;;;1.98;;
56997;SDS011;42890;44.244;22.530;2023-07-31T12:07:25;7.20;;;2.35;;
56997;SDS011;42890;44.244;22.530;2023-07-31T12:09:54;2.25;;;2.05;;
56997;SDS011;42890;44.244;22.530;2023-07-31T12:12:21;2.00;;;1.90;;
56997;SDS011;42890;44.244;22.530;2023-07-31T12:14:47;3.20;;;2.17;;
56997;SDS011;42890;44.244;22.530;2023-07-31T12:17:14;3.33;;;1.75;;
56997;SDS011;42890;44.244;22.530;2023-07-31T12:19:40;2.33;;;1.98;;
56997;SDS011;42890;44.244;22.530;2023-07-31T12:22:13;2.63;;;2.42;;
56997;SDS011;42890;44.244;22.530;2023-07-31T12:24:40;2.22;;;2.00;;
56997;SDS011;42890;44.244;22.530;2023-07-31T12:27:14;1.98;;;1.85;;
56997;SDS011;42890;44.244;22.530;2023-07-31T12:29:43;4.40;;;1.90;;
56997;SDS011;42890;44.244;22.530;2023-07-31T12:32:22;2.45;;;2.03;;
56997;SDS011;42890;44.244;22.530;2023-07-31T12:34:53;1.90;;;1.80;;
56997;SDS011;42890;44.244;22.530;2023-07-31T12:37:22;2.03;;;1.77;;
56997;SDS011;42890;44.244;22.530;2023-07-31T12:39:48;1.80;;;1.70;;
56997;SDS011;42890;44.244;22.530;2023-07-31T12:42:17;1.65;;;1.55;;
56997;SDS011;42890;44.244;22.530;2023-07-31T12:44:43;2.20;;;1.95;;
56997;SDS011;42890;44.244;22.530;2023-07-31T12:47:09;1.92;;;1.83;;
56997;SDS011;42890;44.244;22.530;2023-07-31T12:49:35;3.67;;;1.77;;
56997;SDS011;42890;44.244;22.530;2023-07-31T12:52:01;1.90;;;1.80;;
56997;SDS011;42890;44.244;22.530;2023-07-31T12:54:28;3.10;;;1.95;;
56997;SDS011;42890;44.244;22.530;2023-07-31T12:56:54;1.90;;;1.80;;
56997;SDS011;42890;44.244;22.530;2023-07-31T12:59:20;2.95;;;1.90;;
56997;SDS011;42890;44.244;22.530;2023-07-31T13:01:46;1.70;;;1.60;;
56997;SDS011;42890;44.244;22.530;2023-07-31T13:04:12;3.90;;;1.60;;
56997;SDS011;42890;44.244;22.530;2023-07-31T13:06:39;1.65;;;1.55;;
56997;SDS011;42890;44.244;22.530;2023-07-31T13:09:05;2.05;;;1.60;;
56997;SDS011;42890;44.244;22.530;2023-07-31T13:11:31;2.50;;;1.60;;
56997;SDS011;42890;44.244;22.530;2023-07-31T13:13:58;2.47;;;1.85;;
56997;SDS011;42890;44.244;22.530;2023-07-31T13:16:25;2.00;;;1.90;;
56997;SDS011;42890;44.244;22.530;2023-07-31T13:18:53;2.22;;;1.70;;
56997;SDS011;42890;44.244;22.530;2023-07-31T13:21:19;2.20;;;1.70;;
56997;SDS011;42890;44.244;22.530;2023-07-31T13:23:47;2.30;;;1.80;;
56997;SDS011;42890;44.244;22.530;2023-07-31T13:26:13;4.57;;;2.03;;
56997;SDS011;42890;44.244;22.530;2023-07-31T13:28:39;1.60;;;1.50;;
56997;SDS011;42890;44.244;22.530;2023-07-31T13:31:05;1.80;;;1.70;;
56997;SDS011;42890;44.244;22.530;2023-07-31T13:33:31;1.98;;;1.70;;
56997;SDS011;42890;44.244;22.530;2023-07-31T13:35:57;1.80;;;1.70;;
56997;SDS011;42890;44.244;22.530;2023-07-31T13:38:23;2.30;;;1.85;;
56997;SDS011;42890;44.244;22.530;2023-07-31T13:40:50;4.30;;;1.70;;
56997;SDS011;42890;44.244;22.530;2023-07-31T13:43:16;3.03;;;1.73;;
56997;SDS011;42890;44.244;22.530;2023-07-31T13:45:42;2.08;;;1.98;;
56997;SDS011;42890;44.244;22.530;2023-07-31T13:48:08;3.10;;;2.05;;
56997;SDS011;42890;44.244;22.530;2023-07-31T13:50:34;2.15;;;1.70;;
56997;SDS011;42890;44.244;22.530;2023-07-31T13:53:00;2.00;;;1.80;;
56997;SDS011;42890;44.244;22.530;2023-07-31T13:55:26;2.50;;;1.90;;
56997;SDS011;42890;44.244;22.530;2023-07-31T13:57:52;2.55;;;1.85;;
56997;SDS011;42890;44.244;22.530;2023-07-31T14:00:18;5.70;;;1.90;;
56997;SDS011;42890;44.244;22.530;2023-07-31T14:02:45;2.22;;;2.03;;
56997;SDS011;42890;44.244;22.530;2023-07-31T14:05:11;1.83;;;1.65;;
56997;SDS011;42890;44.244;22.530;2023-07-31T14:07:37;2.58;;;2.00;;
56997;SDS011;42890;44.244;22.530;2023-07-31T14:10:04;2.10;;;1.90;;
56997;SDS011;42890;44.244;22.530;2023-07-31T14:12:30;1.70;;;1.60;;
56997;SDS011;42890;44.244;22.530;2023-07-31T14:14:56;2.08;;;1.88;;
56997;SDS011;42890;44.244;22.530;2023-07-31T14:17:22;2.95;;;1.80;;
56997;SDS011;42890;44.244;22.530;2023-07-31T14:19:48;1.92;;;1.80;;
56997;SDS011;42890;44.244;22.530;2023-07-31T14:22:15;3.88;;;1.88;;
56997;SDS011;42890;44.244;22.530;2023-07-31T14:24:41;1.77;;;1.67;;
56997;SDS011;42890;44.244;22.530;2023-07-31T14:27:07;2.17;;;1.90;;
56997;SDS011;42890;44.244;22.530;2023-07-31T14:29:34;2.75;;;1.80;;
56997;SDS011;42890;44.244;22.530;2023-07-31T14:32:00;4.82;;;1.60;;
56997;SDS011;42890;44.244;22.530;2023-07-31T14:34:26;1.85;;;1.50;;
56997;SDS011;42890;44.244;22.530;2023-07-31T14:36:52;2.22;;;1.42;;
56997;SDS011;42890;44.244;22.530;2023-07-31T14:39:18;1.50;;;1.40;;
56997;SDS011;42890;44.244;22.530;2023-07-31T14:41:44;2.15;;;1.50;;